createdAt,value
2019-03-25T00:00:43.454Z,74.14
2019-03-25T00:03:12.918Z,74.16
2019-03-25T00:05:42.407Z,73.82
2019-03-25T00:08:11.903Z,73.64
2019-03-25T00:10:41.371Z,73.74
2019-03-25T00:13:10.835Z,73.62
2019-03-25T00:15:40.468Z,73.41
2019-03-25T00:18:09.933Z,73.51
2019-03-25T00:20:59.012Z,73.28
2019-03-25T00:23:47.812Z,73.09
2019-03-25T00:26:29.439Z,72.80
2019-03-25T00:29:18.235Z,73.90
2019-03-25T00:32:07.052Z,74.22
2019-03-25T00:34:55.858Z,74.98
2019-03-25T00:37:44.673Z,75.58
2019-03-25T00:40:33.468Z,75.72
2019-03-25T00:43:22.283Z,75.96
2019-03-25T00:46:11.082Z,75.77
2019-03-25T00:48:59.898Z,75.09
2019-03-25T00:51:48.697Z,75.15
2019-03-25T00:54:37.508Z,74.83
2019-03-25T00:57:45.329Z,74.53
2019-03-25T01:00:34.143Z,74.77
2019-03-25T01:03:22.958Z,74.60
2019-03-25T01:06:11.753Z,75.42
2019-03-25T01:09:00.566Z,75.02
2019-03-25T01:11:49.580Z,74.80
2019-03-25T01:14:58.991Z,75.30
2019-03-25T01:17:47.783Z,75.81
2019-03-25T01:20:36.603Z,75.14
2019-03-25T01:23:25.394Z,75.11
2019-03-25T01:26:14.278Z,74.95
2019-03-25T01:28:55.977Z,75.08
2019-03-25T01:31:44.801Z,76.30
2019-03-25T01:34:33.614Z,76.32
2019-03-25T01:37:22.406Z,76.04
2019-03-25T01:43:26.403Z,76.06
2019-03-25T01:46:15.217Z,75.25
2019-03-25T01:49:04.084Z,75.15
2019-03-25T01:51:52.902Z,75.18
2019-03-25T01:54:41.722Z,75.03
2019-03-25T01:57:30.511Z,75.34
2019-03-25T02:00:19.390Z,74.65
2019-03-25T02:03:08.225Z,74.68
2019-03-25T02:05:57.023Z,74.46
2019-03-25T02:08:45.848Z,74.28
2019-03-25T02:11:34.644Z,74.86
2019-03-25T02:14:23.456Z,74.70
2019-03-25T02:17:12.254Z,74.88
2019-03-25T02:20:01.076Z,74.70
2019-03-25T02:22:50.049Z,75.51
2019-03-25T02:25:40.419Z,74.98
2019-03-25T02:31:16.949Z,75.27
2019-03-25T02:34:05.720Z,75.64
2019-03-25T02:36:54.544Z,75.55
2019-03-25T02:39:43.332Z,75.22
2019-03-25T02:42:32.148Z,75.11
2019-03-25T02:45:20.953Z,75.15
2019-03-25T02:48:09.761Z,74.96
2019-03-25T02:50:58.569Z,74.84
2019-03-25T02:53:47.376Z,74.33
2019-03-25T02:56:36.193Z,74.18
2019-03-25T02:59:24.986Z,74.17
2019-03-25T03:02:13.818Z,74.06
2019-03-25T03:05:02.617Z,74.02
2019-03-25T03:07:51.437Z,73.68
2019-03-25T03:10:40.310Z,75.09
2019-03-25T03:13:29.125Z,78.16
2019-03-25T03:16:17.917Z,77.29
2019-03-25T03:19:06.734Z,76.45
2019-03-25T03:21:55.531Z,75.46
2019-03-25T03:24:44.344Z,74.56
2019-03-25T03:27:33.166Z,73.81
2019-03-25T03:30:13.118Z,73.46
2019-03-25T03:33:01.907Z,72.75
2019-03-25T03:35:50.713Z,72.13
2019-03-25T03:38:39.530Z,72.00
2019-03-25T03:41:28.326Z,71.89
2019-03-25T03:44:17.145Z,72.26
2019-03-25T03:47:25.056Z,73.15
2019-03-25T03:50:34.752Z,73.17
2019-03-25T03:53:23.732Z,73.46
2019-03-25T03:56:14.362Z,73.79
2019-03-25T03:59:24.022Z,73.66
2019-03-25T04:02:13.233Z,74.08
2019-03-25T04:05:02.015Z,73.92
2019-03-25T04:07:50.887Z,73.64
2019-03-25T04:10:39.690Z,73.81
2019-03-25T04:13:28.506Z,74.28
2019-03-25T04:16:17.303Z,74.51
2019-03-25T04:19:25.164Z,74.48
2019-03-25T04:22:13.946Z,74.54
2019-03-25T04:25:02.765Z,74.43
2019-03-25T04:27:51.556Z,74.87
2019-03-25T04:30:31.363Z,75.56
2019-03-25T04:33:20.181Z,75.77
2019-03-25T04:36:08.976Z,75.54
2019-03-25T04:38:57.787Z,75.07
2019-03-25T04:41:46.579Z,75.31
2019-03-25T04:44:35.399Z,75.22
2019-03-25T04:47:24.197Z,74.89
2019-03-25T04:50:13.010Z,75.17
2019-03-25T04:53:01.801Z,75.65
2019-03-25T04:55:50.634Z,75.20
2019-03-25T04:58:39.442Z,75.56
2019-03-25T05:01:47.277Z,75.91
2019-03-25T05:04:36.090Z,75.78
2019-03-25T05:07:24.889Z,76.00
2019-03-25T05:10:13.704Z,76.44
2019-03-25T05:13:02.501Z,76.85
2019-03-25T05:15:51.323Z,76.27
2019-03-25T05:18:40.119Z,76.87
2019-03-25T05:21:28.931Z,77.03
2019-03-25T05:24:17.739Z,77.18
2019-03-25T05:27:06.557Z,77.32
2019-03-25T05:29:55.357Z,77.47
2019-03-25T05:32:37.013Z,77.90
2019-03-25T05:35:25.834Z,77.83
2019-03-25T05:38:14.621Z,77.99
2019-03-25T05:41:03.495Z,78.62
2019-03-25T05:43:52.330Z,78.87
2019-03-25T05:46:41.121Z,79.31
2019-03-25T05:49:29.937Z,80.52
2019-03-25T05:52:18.738Z,81.89
2019-03-25T05:55:26.896Z,83.38
2019-03-25T05:58:15.694Z,82.16
2019-03-25T06:01:04.587Z,83.28
2019-03-25T06:03:53.513Z,83.08
2019-03-25T06:06:42.319Z,82.02
2019-03-25T06:09:31.140Z,82.08
2019-03-25T06:12:19.934Z,81.46
2019-03-25T06:15:08.927Z,81.10
2019-03-25T06:17:57.730Z,81.35
2019-03-25T06:20:46.561Z,81.76
2019-03-25T06:23:35.380Z,80.63
2019-03-25T06:26:24.174Z,80.38
2019-03-25T06:29:12.997Z,80.18
2019-03-25T06:31:54.277Z,79.23
2019-03-25T06:34:43.109Z,77.50
2019-03-25T06:37:31.925Z,76.63
2019-03-25T06:40:20.809Z,77.17
2019-03-25T06:43:09.604Z,74.97
2019-03-25T06:45:58.415Z,75.93
2019-03-25T06:48:47.212Z,72.90
2019-03-25T06:51:36.041Z,74.38
2019-03-25T06:54:24.820Z,73.54
2019-03-25T06:57:24.959Z,74.48
2019-03-25T07:00:25.051Z,73.62
2019-03-25T07:03:13.869Z,72.70
2019-03-25T07:09:10.414Z,73.74
2019-03-25T07:11:59.205Z,72.87
2019-03-25T07:15:07.108Z,73.34
2019-03-25T07:18:14.925Z,72.53
2019-03-25T07:21:03.742Z,72.41
2019-03-25T07:24:11.559Z,72.09
2019-03-25T07:27:00.367Z,72.42
2019-03-25T07:29:41.991Z,71.94
2019-03-25T07:32:30.786Z,72.82
2019-03-25T07:35:19.590Z,72.11
2019-03-25T07:38:08.393Z,71.77
2019-03-25T07:40:57.207Z,70.75
2019-03-25T07:43:46.000Z,71.12
2019-03-25T07:46:34.814Z,71.85
2019-03-25T07:49:23.615Z,72.96
2019-03-25T07:52:12.431Z,74.67
2019-03-25T07:55:01.247Z,74.29
2019-03-25T08:00:57.824Z,73.35
2019-03-25T08:03:46.618Z,71.91
2019-03-25T08:06:35.414Z,71.28
2019-03-25T08:09:24.222Z,70.93
2019-03-25T08:12:13.028Z,68.97
2019-03-25T08:15:01.832Z,68.39
2019-03-25T08:17:50.626Z,67.36
2019-03-25T08:20:39.495Z,67.14
2019-03-25T08:23:28.310Z,64.56
2019-03-25T08:26:17.098Z,65.42
2019-03-25T08:29:05.921Z,64.29
2019-03-25T08:31:47.454Z,63.62
2019-03-25T08:34:36.271Z,64.25
2019-03-25T08:37:25.072Z,63.94
2019-03-25T08:40:32.910Z,65.58
2019-03-25T08:43:21.709Z,64.47
2019-03-25T08:46:10.523Z,66.54
2019-03-25T08:48:59.317Z,66.64
2019-03-25T08:51:48.130Z,65.96
2019-03-25T08:54:38.013Z,66.94
2019-03-25T08:57:27.456Z,66.23
2019-03-25T09:00:35.515Z,67.01
2019-03-25T09:03:24.328Z,65.73
2019-03-25T09:06:13.127Z,65.00
2019-03-25T09:09:01.936Z,63.88
2019-03-25T09:11:51.791Z,64.59
2019-03-25T09:14:41.265Z,63.80
2019-03-25T09:17:30.077Z,62.35
2019-03-25T09:20:18.955Z,63.18
2019-03-25T09:23:07.752Z,62.06
2019-03-25T09:25:56.577Z,62.96
2019-03-25T09:28:45.695Z,61.36
2019-03-25T09:31:36.351Z,62.26
2019-03-25T09:34:18.024Z,62.25
2019-03-25T09:37:06.841Z,63.65
2019-03-25T09:39:55.653Z,64.51
2019-03-25T09:42:44.461Z,64.76
2019-03-25T09:45:33.349Z,65.89
2019-03-25T09:48:22.165Z,67.23
2019-03-25T09:51:11.023Z,69.12
2019-03-25T09:53:59.906Z,67.88
2019-03-25T09:56:48.700Z,68.91
2019-03-25T09:59:37.580Z,68.71
2019-03-25T10:02:26.375Z,69.80
2019-03-25T10:08:09.426Z,72.83
2019-03-25T10:10:58.240Z,74.93
2019-03-25T10:13:47.032Z,76.53
2019-03-25T10:16:35.853Z,77.04
2019-03-25T10:19:43.673Z,77.70
2019-03-25T10:22:51.577Z,78.94
2019-03-25T10:25:40.376Z,80.21
2019-03-25T10:28:20.115Z,79.97
2019-03-25T10:34:16.670Z,83.03
2019-03-25T10:37:05.483Z,79.53
2019-03-25T10:39:54.272Z,81.51
2019-03-25T10:42:43.090Z,80.77
2019-03-25T10:45:31.892Z,82.45
2019-03-25T10:48:20.699Z,83.07
2019-03-25T10:51:09.495Z,82.88
2019-03-25T10:53:58.303Z,83.55
2019-03-25T10:57:06.167Z,82.31
2019-03-25T10:59:55.066Z,81.31
2019-03-25T11:02:43.927Z,81.75
2019-03-25T11:05:32.796Z,78.08
2019-03-25T11:08:21.651Z,78.19
2019-03-25T11:14:05.530Z,76.19
2019-03-25T11:16:47.399Z,74.65
2019-03-25T11:19:36.225Z,71.48
2019-03-25T11:22:25.100Z,72.22
2019-03-25T11:25:33.803Z,74.03
2019-03-25T11:28:41.856Z,74.00
2019-03-25T11:31:30.692Z,75.89
2019-03-25T11:34:19.546Z,76.37
2019-03-25T11:37:08.446Z,77.09
2019-03-25T11:39:57.297Z,81.05
2019-03-25T11:42:46.141Z,82.53
2019-03-25T11:45:35.034Z,81.31
2019-03-25T11:48:23.842Z,82.34
2019-03-25T11:51:12.641Z,81.96
2019-03-25T11:54:01.455Z,81.68
2019-03-25T11:56:50.245Z,83.15
2019-03-25T11:59:39.062Z,82.88
2019-03-25T12:02:27.858Z,81.39
2019-03-25T12:05:16.739Z,81.92
2019-03-25T12:08:05.625Z,82.08
2019-03-25T12:10:54.416Z,81.82
2019-03-25T12:13:43.301Z,81.17
2019-03-25T12:16:32.120Z,81.78
2019-03-25T12:19:14.159Z,81.61
2019-03-25T12:22:02.987Z,79.02
2019-03-25T12:24:51.785Z,80.85
2019-03-25T12:27:40.707Z,75.70
2019-03-25T12:30:29.559Z,76.49
2019-03-25T12:33:18.371Z,75.88
2019-03-25T12:39:16.566Z,71.76
2019-03-25T12:42:05.400Z,70.95
2019-03-25T12:44:54.223Z,66.58
2019-03-25T12:50:50.826Z,70.52
2019-03-25T12:53:39.621Z,75.82
2019-03-25T12:56:28.441Z,74.15
2019-03-25T12:59:41.119Z,76.22
2019-03-25T13:02:26.792Z,76.38
2019-03-25T13:05:15.660Z,75.65
2019-03-25T13:08:04.717Z,75.40
2019-03-25T13:10:53.512Z,72.62
2019-03-25T13:13:42.324Z,71.20
2019-03-25T13:16:31.130Z,69.34
2019-03-25T13:19:12.660Z,66.80
2019-03-25T13:22:01.461Z,66.10
2019-03-25T13:24:50.281Z,65.95
2019-03-25T13:27:39.077Z,65.57
2019-03-25T13:30:27.891Z,68.66
2019-03-25T13:33:16.690Z,70.80
2019-03-25T13:36:05.690Z,73.87
2019-03-25T13:38:54.489Z,73.37
2019-03-25T13:41:43.298Z,73.95
2019-03-25T13:44:32.091Z,72.49
2019-03-25T13:47:40.001Z,70.07
2019-03-25T13:50:28.807Z,67.45
2019-03-25T13:53:17.627Z,65.26
2019-03-25T13:56:06.432Z,60.86
2019-03-25T13:58:55.241Z,60.75
2019-03-25T14:01:44.037Z,63.18
2019-03-25T14:04:32.853Z,66.23
2019-03-25T14:07:21.677Z,65.55
2019-03-25T14:10:10.715Z,62.90
2019-03-25T14:12:59.535Z,61.13
2019-03-25T14:15:48.332Z,60.08
2019-03-25T14:21:24.193Z,56.65
2019-03-25T14:24:13.026Z,59.67
2019-03-25T14:27:01.838Z,62.60
2019-03-25T14:29:50.646Z,62.76
2019-03-25T14:32:39.470Z,62.24
2019-03-25T14:35:28.262Z,60.76
2019-03-25T14:38:17.073Z,60.14
2019-03-25T14:41:06.191Z,61.21
2019-03-25T14:43:55.000Z,57.86
2019-03-25T14:46:43.841Z,55.26
2019-03-25T14:49:32.620Z,54.09
2019-03-25T14:52:21.444Z,58.25
2019-03-25T14:55:10.307Z,59.78
2019-03-25T14:57:59.250Z,60.34
2019-03-25T15:00:48.093Z,62.38
2019-03-25T15:03:36.915Z,63.17
2019-03-25T15:06:25.736Z,63.41
2019-03-25T15:09:14.519Z,64.87
2019-03-25T15:12:03.340Z,66.96
2019-03-25T15:14:52.127Z,73.04
2019-03-25T15:17:40.942Z,79.04
2019-03-25T15:20:23.054Z,84.11
2019-03-25T15:23:11.864Z,84.34
2019-03-25T15:26:00.715Z,84.43
2019-03-25T15:28:49.620Z,84.71
2019-03-25T15:31:38.455Z,84.53
2019-03-25T15:34:27.287Z,84.96
2019-03-25T15:37:16.141Z,84.94
2019-03-25T15:40:25.901Z,84.01
2019-03-25T15:43:16.425Z,82.90
2019-03-25T15:46:05.342Z,81.40
2019-03-25T15:48:54.169Z,80.94
2019-03-25T15:51:43.994Z,74.18
2019-03-25T15:54:33.515Z,68.62
2019-03-25T15:57:22.317Z,62.84
2019-03-25T16:00:32.044Z,64.82
2019-03-25T16:03:20.864Z,63.87
2019-03-25T16:06:09.964Z,64.36
2019-03-25T16:11:52.992Z,62.27
2019-03-25T16:14:41.813Z,64.04
2019-03-25T16:17:21.627Z,66.27
2019-03-25T16:20:30.154Z,66.66
2019-03-25T16:23:18.980Z,66.50
2019-03-25T16:26:08.158Z,67.71
2019-03-25T16:28:56.967Z,69.37
2019-03-25T16:31:45.771Z,70.13
2019-03-25T16:34:34.587Z,70.81
2019-03-25T16:37:23.398Z,71.58
2019-03-25T16:40:12.284Z,73.40
2019-03-25T16:43:01.086Z,72.32
2019-03-25T16:45:50.167Z,72.52
2019-03-25T16:48:38.978Z,73.11
2019-03-25T16:51:28.054Z,73.56
2019-03-25T16:54:16.841Z,74.96
2019-03-25T16:57:05.676Z,75.20
2019-03-25T16:59:54.493Z,75.24
2019-03-25T17:02:43.545Z,76.69
2019-03-25T17:05:32.348Z,77.64
2019-03-25T17:08:21.138Z,77.56
2019-03-25T17:14:10.031Z,76.76
2019-03-25T17:16:58.831Z,75.47
2019-03-25T17:19:47.647Z,77.08
2019-03-25T17:22:36.442Z,78.18
2019-03-25T17:25:25.276Z,78.28
2019-03-25T17:28:14.427Z,80.37
2019-03-25T17:31:03.302Z,80.43
2019-03-25T17:33:52.186Z,80.13
2019-03-25T17:36:40.983Z,79.56
2019-03-25T17:39:29.820Z,79.39
2019-03-25T17:42:18.629Z,79.49
2019-03-25T17:45:28.339Z,79.80
2019-03-25T17:48:17.125Z,79.41
2019-03-25T17:51:06.020Z,79.77
2019-03-25T17:54:13.833Z,79.23
2019-03-25T17:57:02.655Z,80.06
2019-03-25T17:59:51.440Z,79.95
2019-03-25T18:02:40.260Z,79.23
2019-03-25T18:05:29.053Z,79.23
2019-03-25T18:08:17.865Z,78.80
2019-03-25T18:11:06.698Z,80.00
2019-03-25T18:16:42.405Z,80.07
2019-03-25T18:22:40.058Z,80.17
2019-03-25T18:25:29.509Z,80.73
2019-03-25T18:28:18.401Z,80.23
2019-03-25T18:34:15.077Z,80.67
2019-03-25T18:37:03.863Z,80.94
2019-03-25T18:39:52.673Z,80.94
2019-03-25T18:42:41.473Z,80.57
2019-03-25T18:45:30.299Z,80.98
2019-03-25T18:48:19.092Z,81.01
2019-03-25T18:51:07.913Z,82.58
2019-03-25T18:53:56.776Z,82.01
2019-03-25T18:59:40.140Z,81.56
2019-03-25T19:02:29.022Z,82.41
2019-03-25T19:05:17.828Z,82.71
2019-03-25T19:08:06.714Z,82.11
2019-03-25T19:10:55.538Z,82.55
2019-03-25T19:13:44.358Z,82.34
2019-03-25T19:16:25.802Z,81.27
2019-03-25T19:19:14.573Z,81.62
2019-03-25T19:22:05.328Z,81.28
2019-03-25T19:24:53.960Z,80.95
2019-03-25T19:27:42.746Z,80.64
2019-03-25T19:30:31.581Z,80.86
2019-03-25T19:33:20.364Z,81.01
2019-03-25T19:36:09.173Z,81.09
2019-03-25T19:38:57.986Z,80.83
2019-03-25T19:41:46.869Z,80.93
2019-03-25T19:44:35.713Z,81.90
2019-03-25T19:47:24.502Z,80.96
2019-03-25T19:53:28.498Z,81.22
2019-03-25T19:56:17.285Z,80.54
2019-03-25T19:59:06.122Z,80.78
2019-03-25T20:01:54.905Z,81.11
2019-03-25T20:04:43.770Z,81.63
2019-03-25T20:07:32.555Z,80.65
2019-03-25T20:10:40.681Z,80.86
2019-03-25T20:13:29.483Z,80.38
2019-03-25T20:16:18.291Z,78.90
2019-03-25T20:19:00.216Z,78.89
2019-03-25T20:21:49.056Z,78.66
2019-03-25T20:24:37.832Z,77.47
2019-03-25T20:27:26.734Z,78.82
2019-03-25T20:33:44.117Z,77.97
2019-03-25T20:36:32.932Z,78.81
2019-03-25T20:39:21.735Z,78.19
2019-03-25T20:42:10.559Z,77.88
2019-03-25T20:44:59.373Z,77.57
2019-03-25T20:47:48.168Z,78.40
2019-03-25T20:50:37.211Z,77.87
2019-03-25T20:53:26.048Z,77.60
2019-03-25T20:56:14.915Z,77.47
2019-03-25T20:59:03.868Z,77.50
2019-03-25T21:01:43.616Z,78.65
2019-03-25T21:04:32.461Z,77.67
2019-03-25T21:07:21.286Z,77.35
2019-03-25T21:10:10.305Z,77.78
2019-03-25T21:12:59.124Z,77.53
2019-03-25T21:15:47.959Z,78.54
2019-03-25T21:18:36.757Z,78.61
2019-03-25T21:21:25.564Z,77.53
2019-03-25T21:24:14.372Z,77.77
2019-03-25T21:27:03.221Z,78.36
2019-03-25T21:29:52.046Z,78.29
2019-03-25T21:32:40.873Z,78.48
2019-03-25T21:35:29.663Z,78.21
2019-03-25T21:38:18.499Z,77.71
2019-03-25T21:41:07.310Z,77.61
2019-03-25T21:43:56.142Z,77.56
2019-03-25T21:46:45.018Z,77.29
2019-03-25T21:49:33.851Z,76.53
2019-03-25T21:52:22.994Z,76.28
2019-03-25T21:55:11.838Z,76.68
2019-03-25T21:58:19.768Z,76.46
2019-03-25T22:01:08.646Z,76.29
2019-03-25T22:03:57.433Z,76.09
2019-03-25T22:06:46.228Z,76.18
2019-03-25T22:09:35.041Z,75.68
2019-03-25T22:12:23.837Z,75.96
2019-03-25T22:15:32.291Z,76.88
2019-03-25T22:18:21.092Z,76.56
2019-03-25T22:21:09.910Z,76.28
2019-03-25T22:23:59.080Z,76.49
2019-03-25T22:29:42.593Z,77.30
2019-03-25T22:32:31.404Z,77.78
2019-03-25T22:35:20.223Z,77.94
2019-03-25T22:38:09.019Z,78.68
2019-03-25T22:40:57.836Z,79.02
2019-03-25T22:44:05.662Z,78.87
2019-03-25T22:47:13.500Z,79.28
2019-03-25T22:50:02.294Z,79.18
2019-03-25T22:52:51.171Z,78.93
2019-03-25T22:55:39.998Z,79.93
2019-03-25T22:58:28.800Z,79.86
2019-03-25T23:01:10.955Z,79.36
2019-03-25T23:03:59.751Z,78.79
2019-03-25T23:06:48.572Z,78.89
2019-03-25T23:09:37.369Z,79.04
2019-03-25T23:12:26.191Z,79.42
2019-03-25T23:15:14.985Z,79.43
2019-03-25T23:18:04.165Z,79.73
2019-03-25T23:20:52.992Z,79.10
2019-03-25T23:23:41.877Z,78.79
2019-03-25T23:26:30.670Z,78.78
2019-03-25T23:29:19.492Z,78.23
2019-03-25T23:32:08.317Z,78.55
2019-03-25T23:34:57.095Z,78.09
2019-03-25T23:37:45.885Z,78.56
2019-03-25T23:40:34.709Z,78.29
2019-03-25T23:43:23.514Z,78.54
2019-03-25T23:46:12.345Z,79.00
2019-03-25T23:52:08.898Z,79.34
2019-03-25T23:54:57.696Z,80.18
2019-03-25T23:57:39.255Z,80.19
